createdAt,value
2022-08-11T00:01:36.710Z,14.23
2022-08-11T00:04:39.874Z,14.18
2022-08-11T00:07:56.222Z,14.11
2022-08-11T00:11:02.557Z,14.05
2022-08-11T00:14:12.948Z,14.02
2022-08-11T00:17:17.131Z,13.98
2022-08-11T00:20:20.076Z,13.98
2022-08-11T00:23:22.188Z,13.95
2022-08-11T00:26:26.896Z,13.92
2022-08-11T00:29:29.329Z,13.90
2022-08-11T00:32:31.772Z,13.84
2022-08-11T00:35:51.815Z,13.83
2022-08-11T00:39:04.487Z,13.82
2022-08-11T00:42:26.472Z,13.79
2022-08-11T00:46:05.478Z,13.75
2022-08-11T00:49:07.137Z,13.69
2022-08-11T00:52:33.790Z,13.60
2022-08-11T00:56:09.638Z,13.52
2022-08-11T00:59:35.012Z,13.47
2022-08-11T01:03:14.473Z,13.41
2022-08-11T01:06:38.446Z,13.24
2022-08-11T01:09:53.625Z,13.14
2022-08-11T01:13:17.081Z,13.06
2022-08-11T01:16:43.243Z,13.01
2022-08-11T01:20:45.325Z,12.96
2022-08-11T01:23:24.878Z,12.91
2022-08-11T01:27:19.151Z,12.88
2022-08-11T01:30:56.611Z,12.81
2022-08-11T01:34:23.044Z,12.77
2022-08-11T01:37:52.967Z,12.67
2022-08-11T01:41:52.147Z,12.65
2022-08-11T01:45:03.498Z,12.58
2022-08-11T01:48:15.808Z,12.57
2022-08-11T01:51:43.245Z,12.58
2022-08-11T01:55:02.023Z,12.56
2022-08-11T01:58:44.182Z,12.52
2022-08-11T02:02:04.158Z,12.50
2022-08-11T02:05:41.287Z,12.48
2022-08-11T02:08:51.389Z,12.46
2022-08-11T02:11:59.811Z,12.42
2022-08-11T02:15:10.090Z,12.38
2022-08-11T02:18:52.903Z,12.35
2022-08-11T02:22:20.500Z,12.24
2022-08-11T02:25:31.291Z,12.14
2022-08-11T02:28:57.463Z,12.07
2022-08-11T02:32:36.299Z,12.01
2022-08-11T02:35:51.649Z,12.03
2022-08-11T02:39:09.750Z,12.00
2022-08-11T02:42:35.486Z,11.97
2022-08-11T02:45:46.301Z,11.93
2022-08-11T02:49:17.951Z,11.89
2022-08-11T02:52:45.463Z,11.81
2022-08-11T02:56:03.335Z,11.79
2022-08-11T02:59:43.788Z,11.71
2022-08-11T03:02:51.693Z,11.65
2022-08-11T03:06:00.290Z,11.63
2022-08-11T03:09:17.867Z,11.59
2022-08-11T03:12:53.447Z,11.53
2022-08-11T03:16:42.928Z,11.50
2022-08-11T03:20:00.209Z,11.47
2022-08-11T03:23:30.052Z,11.44
2022-08-11T03:26:47.415Z,11.42
2022-08-11T03:30:04.786Z,11.43
2022-08-11T03:33:41.666Z,11.31
2022-08-11T03:37:34.370Z,11.28
2022-08-11T03:42:01.855Z,11.23
2022-08-11T03:45:41.643Z,11.14
2022-08-11T03:49:11.927Z,11.12
2022-08-11T03:52:23.394Z,11.15
2022-08-11T03:55:34.731Z,11.23
2022-08-11T03:58:57.744Z,11.29
2022-08-11T04:02:18.407Z,11.36
2022-08-11T04:05:58.808Z,11.36
2022-08-11T04:09:13.276Z,11.38
2022-08-11T04:12:35.892Z,11.47
2022-08-11T04:16:12.887Z,11.59
2022-08-11T04:19:42.614Z,12.15
2022-08-11T04:23:03.418Z,13.30
2022-08-11T04:26:20.254Z,14.11
2022-08-11T04:30:03.961Z,14.74
2022-08-11T04:33:38.247Z,15.34
2022-08-11T04:37:25.803Z,15.83
2022-08-11T04:40:30.254Z,15.91
2022-08-11T04:44:04.587Z,15.14
2022-08-11T04:48:12.451Z,14.45
2022-08-11T04:51:58.361Z,14.14
2022-08-11T04:55:21.762Z,14.09
2022-08-11T04:58:54.595Z,13.89
2022-08-11T05:02:35.588Z,13.82
2022-08-11T05:06:14.732Z,13.75
2022-08-11T05:09:25.311Z,13.79
2022-08-11T05:12:36.435Z,13.75
2022-08-11T05:16:08.158Z,13.82
2022-08-11T05:19:35.434Z,13.90
2022-08-11T05:23:02.277Z,14.06
2022-08-11T05:26:46.974Z,14.18
2022-08-11T05:30:16.429Z,14.41
2022-08-11T05:33:44.157Z,14.67
2022-08-11T05:36:50.848Z,15.05
2022-08-11T05:40:18.618Z,15.18
2022-08-11T05:44:20.329Z,15.35
2022-08-11T05:47:23.367Z,15.51
2022-08-11T05:50:44.629Z,15.78
2022-08-11T05:54:28.962Z,15.88
2022-08-11T05:57:49.927Z,16.09
2022-08-11T06:00:54.104Z,16.33
2022-08-11T06:04:17.259Z,16.43
2022-08-11T06:07:27.082Z,16.81
2022-08-11T06:10:47.796Z,16.30
2022-08-11T06:13:50.447Z,16.52
2022-08-11T06:16:56.558Z,16.77
2022-08-11T06:20:09.677Z,17.20
2022-08-11T06:23:11.943Z,17.13
2022-08-11T06:26:15.618Z,17.10
2022-08-11T06:29:18.842Z,17.35
2022-08-11T06:32:25.390Z,17.26
2022-08-11T06:35:48.314Z,17.45
2022-08-11T06:39:10.102Z,17.66
2022-08-11T06:42:24.955Z,17.50
2022-08-11T06:45:28.490Z,17.82
2022-08-11T06:48:33.088Z,17.98
2022-08-11T06:51:38.465Z,18.35
2022-08-11T06:55:04.274Z,17.91
2022-08-11T06:58:25.546Z,17.73
2022-08-11T07:01:46.352Z,18.32
2022-08-11T07:05:11.636Z,18.60
2022-08-11T07:08:56.697Z,18.44
2022-08-11T07:12:36.180Z,18.68
2022-08-11T07:16:10.819Z,18.66
2022-08-11T07:19:27.257Z,18.59
2022-08-11T07:23:07.748Z,18.50
2022-08-11T07:26:30.829Z,18.69
2022-08-11T07:29:33.038Z,18.74
2022-08-11T07:32:53.714Z,19.11
2022-08-11T07:36:00.138Z,19.29
2022-08-11T07:39:03.163Z,19.37
2022-08-11T07:42:10.648Z,19.37
2022-08-11T07:45:32.035Z,19.48
2022-08-11T07:48:53.114Z,20.13
2022-08-11T07:52:14.678Z,20.08
2022-08-11T07:55:18.194Z,20.10
2022-08-11T07:58:45.374Z,20.16
2022-08-11T08:02:13.411Z,20.07
2022-08-11T08:05:36.714Z,20.43
2022-08-11T08:08:59.839Z,20.67
2022-08-11T08:12:23.912Z,21.19
2022-08-11T08:15:44.428Z,21.31
2022-08-11T08:18:46.702Z,21.66
2022-08-11T08:21:49.280Z,21.77
2022-08-11T08:24:52.341Z,21.73
2022-08-11T08:27:56.477Z,21.44
2022-08-11T08:30:58.581Z,21.55
2022-08-11T08:34:01.311Z,22.23
2022-08-11T08:37:16.199Z,21.92
2022-08-11T08:40:27.878Z,21.68
2022-08-11T08:43:32.592Z,22.10
2022-08-11T08:46:59.140Z,22.56
2022-08-11T08:50:05.630Z,22.45
2022-08-11T08:53:09.082Z,22.82
2022-08-11T08:56:11.710Z,22.80
2022-08-11T08:59:15.866Z,22.96
2022-08-11T09:02:33.979Z,23.26
2022-08-11T09:05:37.646Z,23.11
2022-08-11T09:08:40.908Z,23.25
2022-08-11T09:11:51.222Z,23.42
2022-08-11T09:15:03.629Z,23.37
2022-08-11T09:18:09.790Z,23.63
2022-08-11T09:21:39.229Z,24.06
2022-08-11T09:24:57.694Z,23.73
2022-08-11T09:27:59.941Z,23.92
2022-08-11T09:31:02.549Z,24.29
2022-08-11T09:34:04.378Z,24.04
2022-08-11T09:37:28.642Z,23.99
2022-08-11T09:40:52.702Z,24.52
2022-08-11T09:44:19.333Z,24.85
2022-08-11T09:47:24.468Z,24.45
2022-08-11T09:50:26.787Z,24.08
2022-08-11T09:53:38.158Z,24.86
2022-08-11T09:57:05.291Z,24.83
2022-08-11T10:00:13.149Z,25.12
2022-08-11T10:03:22.200Z,25.60
2022-08-11T10:06:44.404Z,25.18
2022-08-11T10:09:58.982Z,25.87
2022-08-11T10:13:05.510Z,24.94
2022-08-11T10:16:30.071Z,25.88
2022-08-11T10:19:33.836Z,26.30
2022-08-11T10:22:54.805Z,26.46
2022-08-11T10:26:16.101Z,26.31
2022-08-11T10:29:37.684Z,25.53
2022-08-11T10:33:09.701Z,24.38
2022-08-11T10:36:16.869Z,25.32
2022-08-11T10:39:21.497Z,25.51
2022-08-11T10:42:57.427Z,25.65
2022-08-11T10:46:35.349Z,25.12
2022-08-11T10:49:37.623Z,26.13
2022-08-11T10:52:59.873Z,26.23
2022-08-11T10:56:22.241Z,27.25
2022-08-11T10:59:28.149Z,27.01
2022-08-11T11:02:30.167Z,26.87
2022-08-11T11:05:32.866Z,26.99
2022-08-11T11:08:57.702Z,25.72
2022-08-11T11:12:42.520Z,25.20
2022-08-11T11:16:05.267Z,25.38
2022-08-11T11:19:08.909Z,26.41
2022-08-11T11:22:33.894Z,26.52
2022-08-11T11:26:06.456Z,26.42
2022-08-11T11:29:37.847Z,25.96
2022-08-11T11:34:06.499Z,25.41
2022-08-11T11:37:12.386Z,26.10
2022-08-11T11:40:17.514Z,26.25
2022-08-11T11:43:19.508Z,26.33
2022-08-11T11:46:21.865Z,27.31
2022-08-11T11:49:27.259Z,26.97
2022-08-11T11:52:29.806Z,26.45
2022-08-11T11:55:32.099Z,26.73
2022-08-11T11:58:52.995Z,26.89
2022-08-11T12:01:56.261Z,26.52
2022-08-11T12:04:58.421Z,26.71
2022-08-11T12:08:18.122Z,26.67
2022-08-11T12:11:40.566Z,26.87
2022-08-11T12:14:45.328Z,27.19
2022-08-11T12:17:52.423Z,27.48
2022-08-11T12:20:54.661Z,27.95
2022-08-11T12:24:16.512Z,28.03
2022-08-11T12:27:25.045Z,28.04
2022-08-11T12:30:28.235Z,27.37
2022-08-11T12:33:30.104Z,27.15
2022-08-11T12:36:43.471Z,27.54
2022-08-11T12:40:16.400Z,27.37
2022-08-11T12:43:56.885Z,27.38
2022-08-11T12:47:01.969Z,28.01
2022-08-11T12:50:23.659Z,27.70
2022-08-11T12:53:29.942Z,27.09
2022-08-11T12:57:06.405Z,26.64
2022-08-11T13:00:28.478Z,26.57
2022-08-11T13:03:56.675Z,27.29
2022-08-11T13:06:59.215Z,25.97
2022-08-11T13:10:05.551Z,25.97
2022-08-11T13:13:54.418Z,25.72
2022-08-11T13:16:55.931Z,26.13
2022-08-11T13:19:59.447Z,25.70
2022-08-11T13:23:01.975Z,26.21
2022-08-11T13:26:06.551Z,26.39
2022-08-11T13:29:09.568Z,26.61
2022-08-11T13:32:13.653Z,27.11
2022-08-11T13:35:18.966Z,27.04
2022-08-11T13:38:22.195Z,26.77
2022-08-11T13:41:39.454Z,27.36
2022-08-11T13:44:42.568Z,27.62
2022-08-11T13:47:45.611Z,27.22
2022-08-11T13:51:06.707Z,25.40
2022-08-11T13:54:20.234Z,26.09
2022-08-11T13:58:18.289Z,25.95
2022-08-11T14:00:52.746Z,25.46
2022-08-11T14:04:29.760Z,25.30
2022-08-11T14:07:24.430Z,25.67
2022-08-11T14:10:29.562Z,25.54
2022-08-11T14:13:41.220Z,26.03
2022-08-11T14:16:45.483Z,25.47
2022-08-11T14:19:52.255Z,24.97
2022-08-11T14:22:54.216Z,25.36
2022-08-11T14:26:15.653Z,25.13
2022-08-11T14:32:27.702Z,25.17
2022-08-11T14:35:29.578Z,25.54
2022-08-11T14:38:35.563Z,25.76
2022-08-11T14:42:10.220Z,25.20
2022-08-11T14:45:57.938Z,24.91
2022-08-11T14:48:58.027Z,25.97
2022-08-11T14:52:00.167Z,26.35
2022-08-11T14:55:21.024Z,25.89
2022-08-11T14:58:25.651Z,25.96
2022-08-11T15:01:46.351Z,25.57
2022-08-11T15:04:48.469Z,25.32
2022-08-11T15:07:51.576Z,24.82
2022-08-11T15:10:53.418Z,24.68
2022-08-11T15:13:56.698Z,24.89
2022-08-11T15:17:11.696Z,24.73
2022-08-11T15:20:35.692Z,24.70
2022-08-11T15:23:58.280Z,24.71
2022-08-11T15:27:20.147Z,24.77
2022-08-11T15:30:42.767Z,24.79
2022-08-11T15:34:04.564Z,24.40
2022-08-11T15:37:26.800Z,24.29
2022-08-11T15:40:52.401Z,24.29
2022-08-11T15:44:15.245Z,23.92
2022-08-11T15:47:19.834Z,24.01
2022-08-11T15:50:21.908Z,24.07
2022-08-11T15:53:34.771Z,23.75
2022-08-11T15:56:41.207Z,23.90
2022-08-11T16:00:01.599Z,23.69
2022-08-11T16:04:05.698Z,23.41
2022-08-11T16:07:06.030Z,23.47
2022-08-11T16:10:14.018Z,23.88
2022-08-11T16:13:22.532Z,23.60
2022-08-11T16:16:24.899Z,23.75
2022-08-11T16:19:35.123Z,23.44
2022-08-11T16:22:57.218Z,23.36
2022-08-11T16:27:08.361Z,23.16
2022-08-11T16:29:31.389Z,23.07
2022-08-11T16:32:36.453Z,23.05
2022-08-11T16:35:59.048Z,23.18
2022-08-11T16:39:03.318Z,22.99
2022-08-11T16:43:09.848Z,22.94
2022-08-11T16:46:04.805Z,22.78
2022-08-11T16:49:12.251Z,22.96
2022-08-11T16:52:14.880Z,22.80
2022-08-11T16:55:51.685Z,22.83
2022-08-11T16:58:58.175Z,22.71
2022-08-11T17:02:08.987Z,22.41
2022-08-11T17:05:38.147Z,22.37
2022-08-11T17:09:07.633Z,22.00
2022-08-11T17:12:29.818Z,21.98
2022-08-11T17:16:01.293Z,21.83
2022-08-11T17:19:08.920Z,21.86
2022-08-11T17:22:29.037Z,21.81
2022-08-11T17:25:59.349Z,21.43
2022-08-11T17:29:01.103Z,21.27
2022-08-11T17:32:24.776Z,21.28
2022-08-11T17:35:32.902Z,21.06
2022-08-11T17:38:36.638Z,20.92
2022-08-11T17:41:58.391Z,20.82
2022-08-11T17:45:21.538Z,20.74
2022-08-11T17:48:27.963Z,20.65
2022-08-11T17:51:49.950Z,20.53
2022-08-11T17:55:13.368Z,20.43
2022-08-11T17:58:34.789Z,20.35
2022-08-11T18:01:39.852Z,20.18
2022-08-11T18:04:44.736Z,20.13
2022-08-11T18:08:07.177Z,19.98
2022-08-11T18:12:10.818Z,19.95
2022-08-11T18:15:12.030Z,19.88
2022-08-11T18:18:32.308Z,19.80
2022-08-11T18:22:08.291Z,19.71
2022-08-11T18:25:45.249Z,19.55
2022-08-11T18:29:10.208Z,19.47
2022-08-11T18:32:49.029Z,19.38
2022-08-11T18:36:17.671Z,19.28
2022-08-11T18:39:40.732Z,19.17
2022-08-11T18:43:04.140Z,19.12
2022-08-11T18:46:27.283Z,19.07
2022-08-11T18:50:02.387Z,18.97
2022-08-11T18:53:26.015Z,18.86
2022-08-11T18:56:48.407Z,18.77
2022-08-11T19:00:11.770Z,18.71
2022-08-11T19:03:43.394Z,18.63
2022-08-11T19:07:17.397Z,18.53
2022-08-11T19:10:41.955Z,18.40
2022-08-11T19:14:04.096Z,18.33
2022-08-11T19:17:44.746Z,18.26
2022-08-11T19:21:09.106Z,18.16
2022-08-11T19:24:32.630Z,18.02
2022-08-11T19:27:53.515Z,17.87
2022-08-11T19:31:15.530Z,17.76
2022-08-11T19:34:39.285Z,17.71
2022-08-11T19:38:01.765Z,17.64
2022-08-11T19:41:56.171Z,17.55
2022-08-11T19:45:04.427Z,17.49
2022-08-11T19:48:32.771Z,17.40
2022-08-11T19:51:55.582Z,17.32
2022-08-11T19:55:16.679Z,17.25
2022-08-11T19:58:37.282Z,17.19
2022-08-11T20:02:12.870Z,17.12
2022-08-11T20:05:34.735Z,17.04
2022-08-11T20:09:00.254Z,16.99
2022-08-11T20:12:24.221Z,16.91
2022-08-11T20:15:46.592Z,16.86
2022-08-11T20:19:10.040Z,16.79
2022-08-11T20:22:33.034Z,16.70
2022-08-11T20:25:59.156Z,16.64
2022-08-11T20:29:26.083Z,16.56
2022-08-11T20:32:47.038Z,16.50
2022-08-11T20:36:08.680Z,16.46
2022-08-11T20:39:30.023Z,16.39
2022-08-11T20:42:53.931Z,16.31
2022-08-11T20:46:14.588Z,16.22
2022-08-11T20:49:45.301Z,16.14
2022-08-11T20:53:14.206Z,16.02
2022-08-11T20:56:38.330Z,15.96
2022-08-11T21:00:02.628Z,15.90
2022-08-11T21:03:35.915Z,15.76
2022-08-11T21:06:58.096Z,15.80
2022-08-11T21:10:20.062Z,15.81
2022-08-11T21:13:51.414Z,15.89
2022-08-11T21:17:27.699Z,15.91
2022-08-11T21:20:50.679Z,15.99
2022-08-11T21:24:13.460Z,16.03
2022-08-11T21:27:38.455Z,16.06
2022-08-11T21:30:58.717Z,16.05
2022-08-11T21:34:19.827Z,16.05
2022-08-11T21:37:41.566Z,16.05
2022-08-11T21:41:03.809Z,15.95
2022-08-11T21:44:25.491Z,15.89
2022-08-11T21:47:47.342Z,15.87
2022-08-11T21:51:07.855Z,15.81
2022-08-11T21:54:29.635Z,15.74
2022-08-11T21:57:50.675Z,15.83
2022-08-11T22:01:11.980Z,15.80
2022-08-11T22:04:33.003Z,15.76
2022-08-11T22:07:53.289Z,15.71
2022-08-11T22:11:14.291Z,15.66
2022-08-11T22:14:34.783Z,15.57
2022-08-11T22:17:58.049Z,15.46
2022-08-11T22:22:02.524Z,15.37
2022-08-11T22:25:00.400Z,15.27
2022-08-11T22:28:20.840Z,15.14
2022-08-11T22:31:41.651Z,15.07
2022-08-11T22:35:02.799Z,14.96
2022-08-11T22:38:23.666Z,14.95
2022-08-11T22:41:44.364Z,14.93
2022-08-11T22:45:04.598Z,14.93
2022-08-11T22:48:27.642Z,14.93
2022-08-11T22:51:48.362Z,14.91
2022-08-11T22:55:09.960Z,14.89
2022-08-11T22:58:32.497Z,14.83
2022-08-11T23:01:55.461Z,14.69
2022-08-11T23:05:17.999Z,14.62
2022-08-11T23:08:39.560Z,14.69
2022-08-11T23:12:06.730Z,14.69
2022-08-11T23:15:29.163Z,14.66
2022-08-11T23:18:49.762Z,14.61
2022-08-11T23:22:10.315Z,14.60
2022-08-11T23:25:30.769Z,14.44
2022-08-11T23:28:52.041Z,14.32
2022-08-11T23:32:12.955Z,14.32
2022-08-11T23:35:39.211Z,14.28
2022-08-11T23:39:12.167Z,14.21
2022-08-11T23:42:32.280Z,14.18
2022-08-11T23:45:56.787Z,14.11
2022-08-11T23:49:22.381Z,14.06
2022-08-11T23:52:45.379Z,14.06
2022-08-11T23:56:05.635Z,14.00
2022-08-11T23:59:26.735Z,14.01
